Time;durP1;ratioP1;P1;durP2;ratioP2;P2;SDS_P1;SDS_P2;PMS_P1;PMS_P2;Temp;Humidity;BMP_temperature;BMP_pressure;BME280_temperature;BME280_humidity;BME280_pressure;Samples;Min_cycle;Max_cycle;Signal;HPM_P1;HPM_P2
2023/06/27 00:00:21;;;;;;;3.13;2.93;;;20.10;90.70;;;;;;5032012;28;20886;-62
2023/06/27 00:02:47;;;;;;;6.07;3.90;;;20.00;91.00;;;;;;5023738;28;20432;-62
2023/06/27 00:05:13;;;;;;;3.10;2.90;;;20.00;91.00;;;;;;5048206;28;20474;-62
2023/06/27 00:07:41;;;;;;;3.27;3.07;;;19.90;91.10;;;;;;5051314;28;20212;-61
2023/06/27 00:10:09;;;;;;;4.10;3.90;;;19.90;91.80;;;;;;5033622;28;20795;-62
2023/06/27 00:12:35;;;;;;;3.50;3.30;;;19.80;91.70;;;;;;5032184;28;20773;-62
2023/06/27 00:15:04;;;;;;;3.87;3.57;;;19.80;91.70;;;;;;5031650;28;20777;-62
2023/06/27 00:17:34;;;;;;;3.87;3.57;;;19.70;92.10;;;;;;5045728;28;20935;-61
2023/06/27 00:20:01;;;;;;;3.90;3.70;;;19.60;92.70;;;;;;5040070;28;20543;-61
2023/06/27 00:22:27;;;;;;;4.20;3.80;;;19.60;93.30;;;;;;5030838;28;20482;-61
2023/06/27 00:24:53;;;;;;;3.83;3.53;;;19.60;92.90;;;;;;5046317;28;20424;-61
2023/06/27 00:27:20;;;;;;;4.20;3.90;;;19.50;92.90;;;;;;5032287;28;20566;-61
2023/06/27 00:29:46;;;;;;;6.00;4.17;;;19.50;93.20;;;;;;5032839;28;20432;-61
2023/06/27 00:32:11;;;;;;;4.60;4.20;;;19.50;93.20;;;;;;5017053;28;20425;-62
2023/06/27 00:34:39;;;;;;;4.07;3.77;;;19.40;93.60;;;;;;5030383;28;20233;-61
2023/06/27 00:37:05;;;;;;;4.67;4.30;;;19.40;93.90;;;;;;5046737;28;20186;-62
2023/06/27 00:39:32;;;;;;;4.23;4.00;;;19.40;93.90;;;;;;5030736;28;20456;-61
2023/06/27 00:42:00;;;;;;;4.37;3.97;;;19.40;94.20;;;;;;5033829;28;20479;-63
2023/06/27 00:44:26;;;;;;;4.20;3.90;;;19.30;94.50;;;;;;5043478;28;20787;-60
2023/06/27 00:46:51;;;;;;;4.20;3.90;;;19.30;94.30;;;;;;5034481;28;20449;-61
2023/06/27 00:49:19;;;;;;;4.33;4.03;;;19.30;94.40;;;;;;5020023;28;20229;-62
2023/06/27 00:51:47;;;;;;;4.67;4.37;;;19.30;94.20;;;;;;5045373;28;20175;-62
2023/06/27 00:54:14;;;;;;;4.23;3.93;;;19.30;94.20;;;;;;5051694;28;20419;-62
2023/06/27 00:56:40;;;;;;;4.63;4.27;;;19.20;94.40;;;;;;5042224;28;20487;-61
2023/06/27 00:59:06;;;;;;;4.70;4.33;;;19.20;94.40;;;;;;5037151;28;20421;-63
2023/06/27 01:01:32;;;;;;;4.40;4.10;;;19.20;94.90;;;;;;5051783;28;20466;-63
2023/06/27 01:03:58;;;;;;;5.23;4.33;;;19.20;95.00;;;;;;5045944;28;20408;-62
2023/06/27 01:06:49;;;;;;;4.00;3.70;;;19.20;94.90;;;;;;5047963;28;20201;-61
2023/06/27 01:09:28;;;;;;;4.23;3.93;;;19.20;95.70;;;;;;5016910;28;20949;-62
2023/06/27 01:12:14;;;;;;;4.40;4.00;;;19.20;95.40;;;;;;5034468;28;20436;-62
2023/06/27 01:14:43;;;;;;;4.40;4.20;;;19.10;95.30;;;;;;5040466;28;20455;-61
2023/06/27 01:17:10;;;;;;;4.00;3.80;;;19.10;95.20;;;;;;5037018;28;20444;-61
2023/06/27 01:19:37;;;;;;;4.30;4.00;;;19.00;95.20;;;;;;5050114;28;20480;-61
2023/06/27 01:22:11;;;;;;;4.20;3.90;;;19.00;95.30;;;;;;5034682;28;20466;-62
2023/06/27 01:24:37;;;;;;;4.10;3.87;;;19.00;95.50;;;;;;5034806;28;20421;-61
2023/06/27 01:27:03;;;;;;;4.17;3.97;;;19.00;95.70;;;;;;5034264;28;20955;-61
2023/06/27 01:29:30;;;;;;;4.43;4.00;;;19.00;95.80;;;;;;5033860;28;20830;-60
2023/06/27 01:32:14;;;;;;;4.07;3.87;;;18.90;96.10;;;;;;5035487;28;20421;-62
2023/06/27 01:34:57;;;;;;;3.90;3.60;;;18.90;96.30;;;;;;5038185;28;20892;-62
2023/06/27 01:37:32;;;;;;;8.33;3.97;;;18.80;96.20;;;;;;5040504;28;20432;-62
2023/06/27 01:40:14;;;;;;;3.80;3.60;;;18.80;96.30;;;;;;5047243;28;20456;-62
2023/06/27 01:42:42;;;;;;;4.50;4.20;;;18.80;96.90;;;;;;5033978;28;20429;-61
2023/06/27 01:45:12;;;;;;;4.53;4.10;;;18.80;96.80;;;;;;5043282;28;20425;-61
2023/06/27 01:47:41;;;;;;;4.30;4.00;;;18.80;96.90;;;;;;5037701;28;20512;-61
2023/06/27 01:50:09;;;;;;;4.03;3.73;;;18.80;96.80;;;;;;5016501;28;20496;-61
2023/06/27 01:52:35;;;;;;;4.43;4.13;;;18.80;97.00;;;;;;5033857;28;20468;-60
2023/06/27 01:55:01;;;;;;;4.43;4.13;;;18.70;97.10;;;;;;5034422;28;20425;-61
2023/06/27 01:57:27;;;;;;;3.97;3.77;;;18.80;97.00;;;;;;5033358;28;20261;-61
2023/06/27 01:59:53;;;;;;;4.30;4.03;;;18.80;97.20;;;;;;5037178;28;20185;-62
2023/06/27 02:02:19;;;;;;;4.07;3.87;;;18.80;97.00;;;;;;5036509;28;20428;-62
2023/06/27 02:04:45;;;;;;;4.10;3.90;;;18.80;97.60;;;;;;5043068;28;20421;-61
2023/06/27 02:07:11;;;;;;;4.60;4.30;;;18.80;97.60;;;;;;5034079;28;20839;-61
2023/06/27 02:09:36;;;;;;;4.30;3.90;;;18.70;97.20;;;;;;5033036;28;20429;-61
2023/06/27 02:12:04;;;;;;;4.80;4.47;;;18.70;97.50;;;;;;5038224;28;20179;-61
2023/06/27 02:14:31;;;;;;;4.10;3.80;;;18.70;97.40;;;;;;5044101;28;20169;-60
2023/06/27 02:16:56;;;;;;;4.60;4.30;;;18.70;97.40;;;;;;5051672;28;20438;-61
2023/06/27 02:19:22;;;;;;;5.10;4.10;;;18.70;97.20;;;;;;5039695;28;20978;-62
2023/06/27 02:21:49;;;;;;;4.03;3.83;;;18.60;97.40;;;;;;5042178;28;20249;-62
2023/06/27 02:24:15;;;;;;;4.17;3.83;;;18.60;98.00;;;;;;5033331;28;20470;-64
2023/06/27 02:26:41;;;;;;;5.97;3.83;;;18.60;98.00;;;;;;5039563;28;20455;-63
2023/06/27 02:29:07;;;;;;;3.87;3.67;;;18.60;98.40;;;;;;5043012;28;20516;-63
2023/06/27 02:31:32;;;;;;;4.47;4.13;;;18.50;98.10;;;;;;5033288;28;20496;-61
2023/06/27 02:34:00;;;;;;;4.40;4.10;;;18.50;98.60;;;;;;5035146;28;20178;-64
2023/06/27 02:36:27;;;;;;;4.40;4.10;;;18.50;98.50;;;;;;5033325;28;20196;-63
2023/06/27 02:38:54;;;;;;;5.90;4.13;;;18.60;98.40;;;;;;5032640;28;20506;-63
2023/06/27 02:41:24;;;;;;;4.37;4.10;;;18.50;98.40;;;;;;5033009;28;20433;-64
2023/06/27 02:43:50;;;;;;;4.30;4.00;;;18.60;98.30;;;;;;5031861;28;20432;-63
2023/06/27 02:46:16;;;;;;;4.63;4.23;;;18.60;98.10;;;;;;5015540;28;20472;-63
2023/06/27 02:48:42;;;;;;;4.90;4.60;;;18.60;98.20;;;;;;5033187;28;20434;-63
2023/06/27 02:51:08;;;;;;;5.60;5.13;;;18.60;97.60;;;;;;5042986;28;20186;-64
2023/06/27 02:53:34;;;;;;;5.30;4.47;;;18.70;97.70;;;;;;5033507;28;20423;-61
2023/06/27 02:56:03;;;;;;;5.00;4.40;;;18.70;97.30;;;;;;5045317;28;20537;-64
2023/06/27 02:58:32;;;;;;;5.00;4.50;;;18.70;97.00;;;;;;5032464;28;20178;-64
2023/06/27 03:01:03;;;;;;;3.77;3.57;;;18.70;98.40;;;;;;5031768;28;20436;-64
2023/06/27 03:03:29;;;;;;;4.30;4.00;;;18.70;97.50;;;;;;5033252;28;20774;-63
2023/06/27 03:05:55;;;;;;;4.83;4.43;;;18.70;97.30;;;;;;5049628;28;20456;-61
2023/06/27 03:08:21;;;;;;;3.97;3.77;;;18.70;97.50;;;;;;5041709;28;20499;-61
2023/06/27 03:10:46;;;;;;;4.90;4.60;;;18.60;98.10;;;;;;5042527;28;20253;-60
2023/06/27 03:13:19;;;;;;;4.20;3.80;;;18.70;98.80;;;;;;5051976;28;20224;-60
2023/06/27 03:15:44;;;;;;;4.70;4.10;;;18.70;99.00;;;;;;5031922;28;20182;-60
2023/06/27 03:18:10;;;;;;;4.50;4.30;;;18.70;98.80;;;;;;5039186;28;20427;-60
2023/06/27 03:20:36;;;;;;;4.70;4.33;;;18.70;99.30;;;;;;5031992;28;20610;-60
2023/06/27 03:23:01;;;;;;;4.67;4.33;;;18.70;98.90;;;;;;5036434;28;20296;-60
2023/06/27 03:25:27;;;;;;;5.73;4.53;;;18.70;98.90;;;;;;5031802;28;20240;-61
2023/06/27 03:27:53;;;;;;;4.90;4.50;;;18.70;98.70;;;;;;5035784;28;20615;-61
2023/06/27 03:30:18;;;;;;;5.03;4.60;;;18.70;98.60;;;;;;5031797;28;20269;-60
2023/06/27 03:32:44;;;;;;;4.70;4.30;;;18.80;98.80;;;;;;5035367;28;20537;-60
2023/06/27 03:35:10;;;;;;;5.10;4.60;;;18.80;99.00;;;;;;5052350;28;20228;-60
2023/06/27 03:37:36;;;;;;;5.33;4.83;;;18.70;99.30;;;;;;5033087;28;20196;-60
2023/06/27 03:40:03;;;;;;;6.13;5.07;;;18.70;99.10;;;;;;5033689;28;20222;-60
2023/06/27 03:42:29;;;;;;;3.53;3.23;;;18.80;99.60;;;;;;5050093;28;20172;-60
2023/06/27 03:44:54;;;;;;;7.40;6.90;;;18.80;99.40;;;;;;5033889;28;20424;-60
2023/06/27 03:47:22;;;;;;;9.17;8.47;;;18.70;99.70;;;;;;5031948;28;20206;-60
2023/06/27 03:49:48;;;;;;;4.70;4.37;;;18.70;99.10;;;;;;5040998;28;20524;-60
2023/06/27 03:52:14;;;;;;;5.00;4.50;;;18.70;98.60;;;;;;5031775;28;20409;-60
2023/06/27 03:54:40;;;;;;;4.67;4.37;;;18.70;99.20;;;;;;5031971;28;20174;-60
2023/06/27 03:57:06;;;;;;;3.73;3.53;;;18.80;99.70;;;;;;5031462;28;20178;-60
2023/06/27 03:59:32;;;;;;;6.33;4.20;;;18.70;99.60;;;;;;5032225;28;20214;-60
2023/06/27 04:01:58;;;;;;;8.10;7.60;;;18.80;99.00;;;;;;5030849;28;21093;-60
2023/06/27 04:04:25;;;;;;;8.13;7.50;;;18.90;99.00;;;;;;5031516;28;20502;-60
2023/06/27 04:06:51;;;;;;;8.33;7.40;;;18.90;98.50;;;;;;5031494;28;20487;-61
2023/06/27 04:09:16;;;;;;;4.70;4.30;;;18.90;98.40;;;;;;5047702;28;20819;-60
2023/06/27 04:11:42;;;;;;;5.77;5.27;;;18.90;98.40;;;;;;5037376;28;20228;-62
2023/06/27 04:14:08;;;;;;;4.63;4.20;;;19.00;98.50;;;;;;5031704;28;20174;-60
2023/06/27 04:16:34;;;;;;;6.30;5.80;;;19.00;98.80;;;;;;5048495;28;20651;-61
2023/06/27 04:18:59;;;;;;;6.10;5.70;;;19.00;99.60;;;;;;5030168;28;20258;-60
2023/06/27 04:21:26;;;;;;;6.27;5.77;;;19.00;99.80;;;;;;5036001;28;20313;-60
2023/06/27 04:23:54;;;;;;;5.20;4.80;;;18.90;99.90;;;;;;5036092;28;20170;-60
2023/06/27 04:26:20;;;;;;;6.30;5.90;;;18.90;99.90;;;;;;5038219;28;20459;-60
2023/06/27 04:28:48;;;;;;;5.13;4.47;;;19.00;99.90;;;;;;5046769;28;20475;-60
2023/06/27 04:31:14;;;;;;;5.70;4.80;;;19.00;99.90;;;;;;5036561;28;20428;-60
2023/06/27 04:33:40;;;;;;;6.57;6.07;;;19.00;99.90;;;;;;5035008;28;20421;-59
2023/06/27 04:36:07;;;;;;;6.93;3.77;;;19.10;99.90;;;;;;5041074;28;20900;-60
2023/06/27 04:38:39;;;;;;;4.63;3.77;;;19.10;99.90;;;;;;5052783;28;20178;-60
2023/06/27 04:41:06;;;;;;;5.67;5.27;;;19.10;99.90;;;;;;5036548;28;20482;-60
2023/06/27 04:43:32;;;;;;;6.30;4.03;;;19.20;99.90;;;;;;5035219;28;20536;-60
2023/06/27 04:45:59;;;;;;;4.60;4.17;;;19.20;99.90;;;;;;5034290;28;20465;-60
2023/06/27 04:48:25;;;;;;;8.90;8.30;;;19.30;99.90;;;;;;5036387;28;20425;-61
2023/06/27 04:50:51;;;;;;;6.00;5.47;;;19.30;99.90;;;;;;5034409;28;20515;-60
2023/06/27 04:53:20;;;;;;;4.83;4.37;;;19.30;99.90;;;;;;5035366;28;20488;-61
2023/06/27 04:55:46;;;;;;;5.37;4.03;;;19.40;99.90;;;;;;5049742;28;20420;-60
2023/06/27 04:58:12;;;;;;;4.67;4.27;;;19.40;99.90;;;;;;5038660;28;20554;-60
2023/06/27 05:00:38;;;;;;;5.80;5.30;;;19.40;99.90;;;;;;5034418;28;20501;-60
2023/06/27 05:03:04;;;;;;;6.10;5.50;;;19.40;99.90;;;;;;5034634;28;20496;-60
2023/06/27 05:05:34;;;;;;;6.23;5.50;;;19.40;99.90;;;;;;5034631;28;20178;-60
2023/06/27 05:08:03;;;;;;;5.83;5.43;;;19.50;99.90;;;;;;5034038;28;20200;-61
2023/06/27 05:10:30;;;;;;;8.03;7.40;;;19.50;99.00;;;;;;5034865;28;20424;-61
2023/06/27 05:12:57;;;;;;;4.97;4.47;;;19.60;99.90;;;;;;5035413;28;20432;-60
2023/06/27 05:15:23;;;;;;;8.93;8.07;;;19.70;99.60;;;;;;5046274;28;20431;-60
2023/06/27 05:17:52;;;;;;;7.37;6.50;;;19.80;99.20;;;;;;5050024;28;20503;-60
2023/06/27 05:20:18;;;;;;;6.80;6.30;;;19.80;98.70;;;;;;5035383;28;20412;-60
2023/06/27 05:22:44;;;;;;;5.43;4.67;;;19.90;99.10;;;;;;5033856;28;20415;-60
2023/06/27 05:25:10;;;;;;;6.10;4.60;;;19.90;98.70;;;;;;5041977;28;20424;-60
2023/06/27 05:27:36;;;;;;;5.53;4.80;;;20.00;98.90;;;;;;5035002;28;20218;-60
2023/06/27 05:30:02;;;;;;;8.53;5.47;;;20.00;97.90;;;;;;5037675;28;20428;-60
2023/06/27 05:32:28;;;;;;;9.87;9.10;;;20.00;98.10;;;;;;5034427;28;20420;-61
2023/06/27 05:34:54;;;;;;;7.80;7.20;;;20.10;98.30;;;;;;5036052;28;20166;-60
2023/06/27 05:37:20;;;;;;;6.40;5.80;;;20.20;98.70;;;;;;5038522;28;20174;-61
2023/06/27 05:39:45;;;;;;;8.53;7.27;;;20.30;98.10;;;;;;5033162;28;20472;-60
2023/06/27 05:42:11;;;;;;;8.47;4.57;;;20.30;97.70;;;;;;5039381;28;20174;-60
2023/06/27 05:44:37;;;;;;;5.13;4.53;;;20.40;98.50;;;;;;5051620;28;20181;-60
2023/06/27 05:47:03;;;;;;;5.43;4.93;;;20.40;98.00;;;;;;5032978;28;20392;-60
2023/06/27 05:49:29;;;;;;;6.90;6.30;;;20.50;97.70;;;;;;5042194;28;20233;-61
2023/06/27 05:51:55;;;;;;;6.10;5.50;;;20.40;97.60;;;;;;5052829;28;20888;-60
2023/06/27 05:54:20;;;;;;;6.30;5.70;;;20.50;97.60;;;;;;5038004;28;20189;-60
2023/06/27 05:56:46;;;;;;;5.20;4.70;;;20.50;97.80;;;;;;5045967;28;20197;-60
2023/06/27 05:59:12;;;;;;;5.27;4.87;;;20.50;97.70;;;;;;5053030;28;20253;-60
2023/06/27 06:01:38;;;;;;;7.33;4.80;;;20.50;97.90;;;;;;5042689;28;20525;-60
2023/06/27 06:04:08;;;;;;;7.27;6.87;;;20.50;97.80;;;;;;5032930;28;20513;-60
2023/06/27 06:06:37;;;;;;;6.53;5.87;;;20.60;97.80;;;;;;5034091;28;20791;-60
2023/06/27 06:09:06;;;;;;;8.00;7.30;;;20.60;97.70;;;;;;5033676;28;20447;-61
2023/06/27 06:11:36;;;;;;;8.60;7.90;;;20.60;99.90;;;;;;5033738;28;20931;-61
2023/06/27 06:14:03;;;;;;;8.27;6.40;;;20.70;99.80;;;;;;5040702;28;20425;-63
2023/06/27 06:16:32;;;;;;;6.87;5.47;;;20.80;98.40;;;;;;5040753;28;20831;-61
2023/06/27 06:18:59;;;;;;;8.20;6.90;;;20.90;97.30;;;;;;5046014;28;20431;-61
2023/06/27 06:21:25;;;;;;;4.50;4.10;;;21.10;97.30;;;;;;5034936;28;20413;-61
2023/06/27 06:23:51;;;;;;;9.20;5.20;;;21.20;96.70;;;;;;5043612;28;20471;-61
2023/06/27 06:26:16;;;;;;;6.23;5.37;;;21.30;96.50;;;;;;5048889;28;20459;-61
2023/06/27 06:28:42;;;;;;;9.50;4.50;;;21.30;96.70;;;;;;5044013;28;20452;-62
2023/06/27 06:31:10;;;;;;;7.37;4.87;;;21.40;96.50;;;;;;5042019;28;20227;-61
2023/06/27 06:33:39;;;;;;;6.10;5.60;;;21.40;95.90;;;;;;5019137;28;20189;-61
2023/06/27 06:36:06;;;;;;;5.17;4.67;;;21.40;96.10;;;;;;5038565;28;20879;-61
2023/06/27 06:38:32;;;;;;;5.67;5.20;;;21.40;95.80;;;;;;5053503;28;21357;-61
2023/06/27 06:40:58;;;;;;;6.60;4.90;;;21.40;95.80;;;;;;5037364;28;20494;-61
2023/06/27 06:43:26;;;;;;;8.70;6.70;;;21.40;96.60;;;;;;5033203;28;20660;-61
2023/06/27 06:45:52;;;;;;;8.93;6.00;;;21.50;96.20;;;;;;5033091;28;20220;-61
2023/06/27 06:48:20;;;;;;;7.53;6.13;;;21.60;95.60;;;;;;5034517;28;20858;-61
2023/06/27 06:50:47;;;;;;;5.93;5.27;;;21.60;96.10;;;;;;5044085;28;20409;-61
2023/06/27 06:53:13;;;;;;;5.47;4.90;;;21.60;96.70;;;;;;5033301;28;20205;-61
2023/06/27 06:55:38;;;;;;;6.90;5.30;;;21.60;96.70;;;;;;5034087;28;20999;-61
2023/06/27 06:58:04;;;;;;;7.93;6.10;;;21.70;96.50;;;;;;5036959;28;20610;-61
2023/06/27 07:00:31;;;;;;;7.63;6.30;;;21.70;95.70;;;;;;5035610;28;20506;-61
2023/06/27 07:02:57;;;;;;;7.33;5.37;;;21.70;95.80;;;;;;5035257;28;20507;-61
2023/06/27 07:05:23;;;;;;;8.67;5.00;;;21.80;95.70;;;;;;5034554;28;20181;-61
2023/06/27 07:07:49;;;;;;;6.53;4.93;;;21.80;96.70;;;;;;5031852;28;20783;-61
2023/06/27 07:10:15;;;;;;;6.30;5.10;;;21.90;96.10;;;;;;5033311;28;20431;-61
2023/06/27 07:12:41;;;;;;;8.90;6.07;;;21.90;95.80;;;;;;5043672;28;20173;-61
2023/06/27 07:15:10;;;;;;;7.00;5.50;;;22.00;96.00;;;;;;5020061;28;20269;-61
2023/06/27 07:17:35;;;;;;;7.90;4.50;;;22.00;95.60;;;;;;5032858;28;20182;-61
2023/06/27 07:20:01;;;;;;;6.27;5.13;;;22.00;95.70;;;;;;5032639;28;20523;-61
2023/06/27 07:22:27;;;;;;;8.60;5.90;;;22.10;96.70;;;;;;5032848;28;20174;-61
2023/06/27 07:24:53;;;;;;;10.57;5.43;;;22.10;96.50;;;;;;5040471;28;20559;-61
2023/06/27 07:27:18;;;;;;;9.73;7.77;;;22.00;96.50;;;;;;5044639;28;20285;-61
2023/06/27 07:29:44;;;;;;;6.10;5.40;;;22.10;96.60;;;;;;5036158;28;20174;-61
2023/06/27 07:32:11;;;;;;;7.07;6.00;;;22.20;97.30;;;;;;5042363;28;20173;-61
2023/06/27 07:34:37;;;;;;;8.03;5.90;;;22.40;96.70;;;;;;5044188;28;20174;-61
2023/06/27 07:37:03;;;;;;;8.17;5.60;;;22.40;96.30;;;;;;5033058;28;20409;-61
2023/06/27 07:39:29;;;;;;;5.70;5.30;;;22.50;96.40;;;;;;5052430;28;20452;-61
2023/06/27 07:41:54;;;;;;;11.80;5.80;;;22.60;96.60;;;;;;5045392;28;20498;-61
2023/06/27 07:44:20;;;;;;;6.73;5.90;;;22.70;97.30;;;;;;5034822;28;20179;-61
2023/06/27 07:46:46;;;;;;;9.13;5.37;;;22.80;96.60;;;;;;5024013;28;20202;-61
2023/06/27 07:49:12;;;;;;;7.17;5.70;;;22.90;96.30;;;;;;5034724;28;20213;-61
2023/06/27 07:51:37;;;;;;;6.73;5.60;;;22.90;96.40;;;;;;5049948;28;20220;-61
2023/06/27 07:54:03;;;;;;;8.90;5.60;;;23.00;95.90;;;;;;5033838;28;20182;-61
2023/06/27 07:56:29;;;;;;;7.17;5.27;;;23.00;95.40;;;;;;5039571;28;20231;-61
2023/06/27 07:58:55;;;;;;;6.63;5.47;;;23.20;95.80;;;;;;5043694;28;20566;-61
2023/06/27 08:01:21;;;;;;;5.50;5.00;;;23.20;95.90;;;;;;5015051;28;20400;-61
2023/06/27 08:03:47;;;;;;;8.10;4.83;;;23.20;95.10;;;;;;5032176;28;20531;-61
2023/06/27 08:06:14;;;;;;;8.13;5.40;;;23.20;95.20;;;;;;5036841;28;20202;-61
2023/06/27 08:08:40;;;;;;;6.97;5.27;;;23.20;93.90;;;;;;5035549;28;20312;-61
2023/06/27 08:11:06;;;;;;;5.60;5.10;;;23.30;94.60;;;;;;5031151;28;20520;-61
2023/06/27 08:13:32;;;;;;;8.30;4.80;;;23.30;94.90;;;;;;5019915;28;20421;-61
2023/06/27 08:15:57;;;;;;;6.43;5.70;;;23.40;95.70;;;;;;5030705;28;20186;-61
2023/06/27 08:18:23;;;;;;;5.40;4.97;;;23.50;94.80;;;;;;5040361;28;20177;-62
2023/06/27 08:20:49;;;;;;;7.63;4.90;;;23.60;95.00;;;;;;5035387;28;20235;-61
2023/06/27 08:23:15;;;;;;;9.07;4.87;;;23.70;94.50;;;;;;5031769;28;20579;-61
2023/06/27 08:25:40;;;;;;;6.37;5.57;;;23.80;93.70;;;;;;5044644;28;20185;-61
2023/06/27 08:28:06;;;;;;;6.03;5.50;;;23.90;93.70;;;;;;5050164;28;20185;-61
2023/06/27 08:30:32;;;;;;;6.67;4.77;;;24.00;94.00;;;;;;5052299;28;20190;-61
2023/06/27 08:32:58;;;;;;;6.20;5.17;;;24.10;93.60;;;;;;5037703;28;20205;-61
2023/06/27 08:35:24;;;;;;;9.67;5.30;;;24.10;93.80;;;;;;5049952;28;20177;-60
2023/06/27 08:37:49;;;;;;;6.20;5.60;;;24.20;93.60;;;;;;5019771;28;20183;-60
2023/06/27 08:40:23;;;;;;;7.50;4.90;;;24.10;93.10;;;;;;5034113;28;20463;-60
2023/06/27 08:42:48;;;;;;;10.47;5.13;;;24.10;92.70;;;;;;5052169;28;20182;-60
2023/06/27 08:45:14;;;;;;;6.20;5.50;;;24.10;93.40;;;;;;5034621;28;20451;-60
2023/06/27 08:47:44;;;;;;;9.30;6.73;;;24.10;92.60;;;;;;5048323;28;20692;-60
2023/06/27 08:50:13;;;;;;;7.00;5.70;;;24.20;92.50;;;;;;5043833;28;20430;-60
2023/06/27 08:52:44;;;;;;;6.30;5.70;;;24.20;91.80;;;;;;5036917;28;20419;-60
2023/06/27 08:55:41;;;;;;;8.10;7.40;;;24.20;92.90;;;;;;5042211;28;20436;-60
2023/06/27 08:58:13;;;;;;;8.90;4.80;;;24.20;91.80;;;;;;5044384;28;20420;-61
2023/06/27 09:00:39;;;;;;;6.40;5.10;;;24.20;91.40;;;;;;5041635;28;20412;-63
2023/06/27 09:03:07;;;;;;;7.90;7.20;;;24.20;91.40;;;;;;5049261;28;20503;-62
2023/06/27 09:05:36;;;;;;;9.03;6.03;;;24.20;90.70;;;;;;5031663;28;20657;-62
2023/06/27 09:08:02;;;;;;;5.93;4.40;;;24.10;90.60;;;;;;5052060;28;20435;-63
2023/06/27 09:10:28;;;;;;;6.00;5.13;;;24.10;91.60;;;;;;5051192;28;20908;-61
2023/06/27 09:12:55;;;;;;;5.63;5.13;;;24.10;91.30;;;;;;5034534;28;20924;-61
2023/06/27 09:15:21;;;;;;;6.97;6.47;;;24.10;90.00;;;;;;5036015;28;20425;-61
2023/06/27 09:17:47;;;;;;;8.40;4.17;;;24.10;89.30;;;;;;5037641;28;20450;-61
2023/06/27 09:20:17;;;;;;;6.50;6.00;;;24.10;90.30;;;;;;5041196;28;20545;-61
2023/06/27 09:22:43;;;;;;;4.73;3.83;;;24.10;90.00;;;;;;5047543;28;20900;-60
2023/06/27 09:25:19;;;;;;;4.67;4.07;;;24.20;88.10;;;;;;5054061;28;20899;-60
2023/06/27 09:27:46;;;;;;;7.67;4.90;;;24.20;88.00;;;;;;5049757;28;20949;-61
2023/06/27 09:30:12;;;;;;;4.13;3.73;;;24.20;89.10;;;;;;5053550;28;20433;-64
2023/06/27 09:32:58;;;;;;;5.33;4.30;;;24.20;87.90;;;;;;5038684;28;20783;-61
2023/06/27 09:35:25;;;;;;;4.10;3.60;;;24.20;87.10;;;;;;5036347;28;20421;-61
2023/06/27 09:37:52;;;;;;;5.17;4.67;;;24.10;86.80;;;;;;5046210;28;20424;-61
2023/06/27 09:40:25;;;;;;;4.10;3.80;;;24.20;87.90;;;;;;5035626;28;20453;-61
2023/06/27 09:42:58;;;;;;;3.93;3.50;;;24.20;87.10;;;;;;5043843;28;20428;-61
2023/06/27 09:45:29;;;;;;;3.77;3.47;;;24.30;86.80;;;;;;5039208;28;20405;-61
2023/06/27 09:47:55;;;;;;;4.90;4.37;;;24.40;83.70;;;;;;5028574;28;20421;-61
2023/06/27 09:50:28;;;;;;;4.63;3.93;;;24.30;82.40;;;;;;5044525;28;20420;-61
2023/06/27 09:52:57;;;;;;;4.80;4.30;;;24.30;83.00;;;;;;5050081;28;20947;-61
2023/06/27 09:55:23;;;;;;;6.70;4.90;;;24.30;84.60;;;;;;5047654;28;20810;-61
2023/06/27 09:57:49;;;;;;;4.40;4.10;;;24.30;85.30;;;;;;5043865;28;20455;-61
2023/06/27 10:00:21;;;;;;;4.23;4.03;;;24.30;85.00;;;;;;5052155;28;20560;-61
2023/06/27 10:02:49;;;;;;;4.33;4.03;;;24.30;82.90;;;;;;5045179;28;20186;-60
2023/06/27 10:05:20;;;;;;;6.03;5.63;;;24.30;85.40;;;;;;5034076;28;20421;-61
2023/06/27 10:07:48;;;;;;;5.70;5.40;;;24.40;86.90;;;;;;5050117;28;20466;-61
2023/06/27 10:10:14;;;;;;;4.90;4.13;;;24.50;85.00;;;;;;5051977;28;20504;-61
2023/06/27 10:12:42;;;;;;;5.03;4.50;;;24.40;83.60;;;;;;5054431;28;20397;-61
2023/06/27 10:15:10;;;;;;;4.50;4.10;;;24.40;82.70;;;;;;5052750;28;20772;-60
2023/06/27 10:17:37;;;;;;;4.90;4.50;;;24.30;83.80;;;;;;5046153;28;20804;-60
2023/06/27 10:20:08;;;;;;;5.10;4.70;;;24.30;82.90;;;;;;5044917;28;20810;-61
2023/06/27 10:22:35;;;;;;;6.30;4.90;;;24.30;83.10;;;;;;5054305;28;20388;-60
2023/06/27 10:25:08;;;;;;;6.03;5.43;;;24.20;82.50;;;;;;5052469;28;20423;-61
2023/06/27 10:27:38;;;;;;;6.03;5.37;;;24.10;82.30;;;;;;5052860;28;20846;-61
2023/06/27 10:30:25;;;;;;;6.20;5.07;;;23.90;83.70;;;;;;5053531;28;20384;-60
2023/06/27 10:33:06;;;;;;;5.80;5.20;;;23.90;82.90;;;;;;5039048;28;20429;-60
2023/06/27 10:35:31;;;;;;;6.43;5.00;;;23.90;84.30;;;;;;5038677;28;20473;-61
2023/06/27 10:38:08;;;;;;;8.00;5.07;;;23.90;85.00;;;;;;5053765;28;20741;-60
2023/06/27 10:41:03;;;;;;;5.73;5.23;;;24.00;87.30;;;;;;5033839;28;20271;-61
2023/06/27 10:43:51;;;;;;;5.77;5.27;;;24.20;89.90;;;;;;5033594;28;20459;-61
2023/06/27 10:46:26;;;;;;;7.00;5.33;;;24.40;87.40;;;;;;5039620;28;20845;-61
2023/06/27 10:48:59;;;;;;;6.07;5.33;;;24.50;85.70;;;;;;5052149;28;20442;-60
2023/06/27 10:51:34;;;;;;;8.57;6.10;;;24.50;85.00;;;;;;5052455;28;20504;-60
2023/06/27 10:54:12;;;;;;;6.57;6.07;;;24.70;84.10;;;;;;5037335;28;20432;-60
2023/06/27 10:56:43;;;;;;;6.40;5.30;;;24.90;84.70;;;;;;5044492;28;20778;-61
2023/06/27 10:59:16;;;;;;;6.93;6.50;;;24.90;83.00;;;;;;5051628;28;20522;-61
2023/06/27 11:02:01;;;;;;;7.37;6.63;;;25.00;82.90;;;;;;5050742;28;20910;-61
2023/06/27 11:04:39;;;;;;;6.70;5.80;;;24.90;80.50;;;;;;5033628;28;20516;-61
2023/06/27 11:07:07;;;;;;;5.80;5.40;;;24.90;80.30;;;;;;5048019;28;20455;-60
2023/06/27 11:09:35;;;;;;;6.53;5.43;;;24.80;79.90;;;;;;5052307;28;20428;-60
2023/06/27 11:12:10;;;;;;;8.93;5.90;;;24.60;80.10;;;;;;5053288;28;20401;-61
2023/06/27 11:14:40;;;;;;;6.60;6.10;;;24.50;82.30;;;;;;5033978;28;20439;-61
2023/06/27 11:17:06;;;;;;;5.20;4.70;;;24.50;82.70;;;;;;5042397;28;20957;-60
2023/06/27 11:19:34;;;;;;;5.50;5.00;;;24.50;83.40;;;;;;5047451;28;20421;-60
2023/06/27 11:22:00;;;;;;;5.60;4.80;;;24.50;84.50;;;;;;5033237;28;20405;-60
2023/06/27 11:24:27;;;;;;;4.80;4.50;;;24.60;85.10;;;;;;5050276;28;20423;-61
2023/06/27 11:26:53;;;;;;;4.73;4.43;;;24.70;83.50;;;;;;5050674;28;20466;-61
2023/06/27 11:29:20;;;;;;;5.23;4.93;;;24.80;79.50;;;;;;5052007;28;20499;-61
2023/06/27 11:31:46;;;;;;;4.97;4.57;;;24.90;78.10;;;;;;5050024;28;20177;-61
2023/06/27 11:34:11;;;;;;;4.40;4.17;;;24.90;78.60;;;;;;5044767;28;20515;-61
2023/06/27 11:36:38;;;;;;;4.50;4.17;;;24.80;78.70;;;;;;5051791;28;20189;-61
2023/06/27 11:39:05;;;;;;;4.00;3.60;;;24.80;81.10;;;;;;5051777;28;20630;-60
2023/06/27 11:41:31;;;;;;;3.97;3.77;;;24.70;78.00;;;;;;5052567;28;20477;-61
2023/06/27 11:43:56;;;;;;;4.37;3.63;;;24.80;78.90;;;;;;5027065;28;20508;-61
2023/06/27 11:46:22;;;;;;;8.00;4.13;;;24.90;80.40;;;;;;5032175;28;20452;-61
2023/06/27 11:48:49;;;;;;;4.43;3.90;;;25.10;78.60;;;;;;5046815;28;20197;-61
2023/06/27 11:51:14;;;;;;;3.90;3.60;;;25.10;78.00;;;;;;5051190;28;20219;-61
2023/06/27 11:53:50;;;;;;;5.17;3.83;;;25.10;79.80;;;;;;5052662;28;20404;-61
2023/06/27 11:56:17;;;;;;;4.80;4.40;;;25.10;79.60;;;;;;5050166;28;20207;-61
2023/06/27 11:58:47;;;;;;;4.87;4.37;;;25.20;78.40;;;;;;5051448;28;20419;-61
2023/06/27 12:01:14;;;;;;;4.20;3.80;;;25.10;78.30;;;;;;5052260;28;20454;-61
2023/06/27 12:03:49;;;;;;;3.50;3.27;;;25.10;77.90;;;;;;5051763;28;20777;-61
2023/06/27 12:06:27;;;;;;;4.10;3.80;;;25.10;77.30;;;;;;5039887;28;20574;-60
2023/06/27 12:08:53;;;;;;;4.00;3.33;;;25.10;79.20;;;;;;5032150;28;20416;-60
2023/06/27 12:11:26;;;;;;;3.73;3.50;;;25.20;79.20;;;;;;5031968;28;20413;-60
2023/06/27 12:13:51;;;;;;;5.70;4.40;;;25.20;75.00;;;;;;5032200;28;20427;-61
2023/06/27 12:16:27;;;;;;;4.83;4.40;;;25.30;75.00;;;;;;5012537;28;20435;-61
2023/06/27 12:19:01;;;;;;;4.43;4.13;;;25.20;75.20;;;;;;5036400;28;20177;-61
2023/06/27 12:21:27;;;;;;;4.97;4.53;;;25.30;77.00;;;;;;5036086;28;20473;-61
2023/06/27 12:23:53;;;;;;;4.60;4.00;;;25.40;78.60;;;;;;5034366;28;20424;-61
2023/06/27 12:26:19;;;;;;;4.63;4.23;;;25.60;78.10;;;;;;5019064;28;20220;-60
2023/06/27 12:28:54;;;;;;;4.57;3.97;;;25.60;76.50;;;;;;5050867;28;20196;-61
2023/06/27 12:31:20;;;;;;;4.00;3.70;;;25.60;76.00;;;;;;5016311;28;20668;-61
2023/06/27 12:33:46;;;;;;;4.53;3.70;;;25.50;73.70;;;;;;5050013;28;20424;-61
2023/06/27 12:36:14;;;;;;;4.80;4.30;;;25.40;75.00;;;;;;5037009;28;20178;-61
2023/06/27 12:38:40;;;;;;;3.80;3.40;;;25.30;75.80;;;;;;5034418;28;20456;-60
2023/06/27 12:41:06;;;;;;;4.67;4.10;;;25.20;74.50;;;;;;5032903;28;20948;-61
2023/06/27 12:43:32;;;;;;;4.17;3.87;;;25.00;75.40;;;;;;5050268;28;20432;-61
2023/06/27 12:46:02;;;;;;;3.20;3.00;;;24.90;74.30;;;;;;5034949;28;20788;-61
2023/06/27 12:48:28;;;;;;;4.70;3.83;;;24.80;74.40;;;;;;5035528;28;20189;-61